Terminal Aerodrome Forecast
Issued by NWS Topeka, KS

Home | Current Version | Previous Version | Text Only | Print | Product List | Glossary On
Versions: 1 2 3 4 5 6 7 8 9 10 11 12 13 14 15 16 17 18 19 20 21 22 23 24
000
FTUS43 KTOP 281913 AAA
TAFTOP
TAF AMD
KTOP 281913Z 2819/2918 09007KT P6SM OVC021
     FM290500 07012KT P6SM VCSH OVC015
     FM290900 06012G20KT 3SM -SHRA OVC008
     FM291000 06013G25KT 2SM RA OVC008
     FM291500 06015G28KT 3SM -RA OVC008=

USA.gov is the U.S. government's official web portal to all federal, state and local government web resources and services.